Terminal Aerodrome Forecast
Issued by NWS

Home | Current Version | Previous Version | Text Only | Print | Product List | Glossary On
Versions: 1 2 3 4 5 6 7 8 9 10 11 12 13 14 15 16 17 18 19 20 21 22 23 24 25 26 27 28 29 30 31 32 33 34 35 36 37 38 39 40 41 42 43 44 45 46 47 48 49
000
FTUS44 KFWD 241723
TAFAFW
TAF
KAFW 241723Z 2418/2518 24010KT P6SM FEW013 SCT025 OVC040
      TEMPO 2418/2421 5SM SHRA BR SCT015 BKN025
     FM242100 19013KT P6SM VCSH FEW020 BKN040 OVC150
     FM250000 16011KT P6SM BKN050
     FM250600 17013KT P6SM BKN015
     FM250900 17010KT 5SM BR BKN008
     FM251600 18013KT P6SM BKN015=

USA.gov is the U.S. government's official web portal to all federal, state and local government web resources and services.